Time;durP1;ratioP1;P1;durP2;ratioP2;P2;SDS_P1;SDS_P2;PMS_P1;PMS_P2;Temp;Humidity;BMP_temperature;BMP_pressure;BME280_temperature;BME280_humidity;BME280_pressure;Samples;Min_cycle;Max_cycle;Signal;HPM_P1;HPM_P2
2023/03/01 00:00:46;;;;;;;;;;;;;;;;;;2062952;28;19910;-91
2023/03/01 00:01:47;;;;;;;;;;;;;;;;;;2071820;28;20387;-91
2023/03/01 00:02:47;;;;;;;;;;;;;;;;;;2064494;28;19909;-92
2023/03/01 00:03:48;;;;;;;;;;;;;;;;;;2070002;28;19910;-92
2023/03/01 00:04:48;;;;;;;;;;;;;;;;;;2081239;28;20001;-91
2023/03/01 00:05:48;;;;;;;;;;;;;;;;;;2071333;28;19979;-91
2023/03/01 00:06:48;;;;;;;;;;;;;;;;;;2063350;28;20383;-90
2023/03/01 00:07:52;;;;;;;;;;;;;;;;;;2055868;28;19925;-92
2023/03/01 00:08:52;;;;;;;;;;;;;;;;;;2064267;28;19913;-92
2023/03/01 00:09:52;;;;;;;;;;;;;;;;;;2072047;28;19940;-90
2023/03/01 00:11:06;;;;;;;;;;;;;;;;;;2063177;28;19914;-92
2023/03/01 00:12:06;;;;;;;;;;;;;;;;;;2056396;28;19911;-91
2023/03/01 00:13:07;;;;;;;;;;;;;;;;;;2062821;28;19910;-90
2023/03/01 00:14:07;;;;;;;;;;;;;;;;;;2055377;28;20183;-91
2023/03/01 00:15:08;;;;;;;;;;;;;;;;;;2062965;28;20310;-90
2023/03/01 00:16:09;;;;;;;;;;;;;;;;;;2054982;28;20618;-90
2023/03/01 00:17:10;;;;;;;;;;;;;;;;;;2063591;28;19921;-90
2023/03/01 00:18:10;;;;;;;;;;;;;;;;;;2063559;28;19914;-91
2023/03/01 00:19:15;;;;;;;;;;;;;;;;;;2063156;28;19913;-90
2023/03/01 00:20:15;;;;;;;;;;;;;;;;;;2055366;28;19988;-90
2023/03/01 00:21:16;;;;;;;;;;;;;;;;;;2054863;28;19909;-90
2023/03/01 00:22:16;;;;;;;;;;;;;;;;;;2054876;28;19910;-91
2023/03/01 00:23:16;;;;;;;;;;;;;;;;;;2062869;28;20325;-90
2023/03/01 00:24:16;;;;;;;;;;;;;;;;;;2062757;28;20407;-89
2023/03/01 00:25:17;;;;;;;;;;;;;;;;;;2054758;28;19910;-90
2023/03/01 00:26:18;;;;;;;;;;;;;;;;;;2062839;28;19909;-89
2023/03/01 00:27:18;;;;;;;;;;;;;;;;;;2071702;28;19988;-90
2023/03/01 00:28:19;;;;;;;;;;;;;;;;;;2071894;28;19913;-90
2023/03/01 00:29:19;;;;;;;;;;;;;;;;;;2071575;28;20394;-91
2023/03/01 00:30:19;;;;;;;;;;;;;;;;;;2071138;28;19917;-91
2023/03/01 00:31:21;;;;;;;;;;;;;;;;;;2062900;28;20016;-91
2023/03/01 00:32:21;;;;;;;;;;;;;;;;;;2062992;28;19914;-90
2023/03/01 00:33:21;;;;;;;;;;;;;;;;;;2054825;28;20273;-90
2023/03/01 00:34:21;;;;;;;;;;;;;;;;;;2071174;28;19957;-89
2023/03/01 00:35:22;;;;;;;;;;;;;;;;;;2071174;28;19909;-91
2023/03/01 00:36:24;;;;;;;;;;;;;;;;;;2055193;28;19910;-92
2023/03/01 00:37:24;;;;;;;;;;;;;;;;;;2062980;28;19910;-92
2023/03/01 00:38:25;;;;;;;;;;;;;;;;;;2070842;28;19909;-91
2023/03/01 00:39:25;;;;;;;;;;;;;;;;;;2071027;28;19916;-90
2023/03/01 00:40:26;;;;;;;;;;;;;;;;;;2048240;28;19952;-89
2023/03/01 00:41:27;;;;;;;;;;;;;;;;;;2062712;28;19988;-89
2023/03/01 00:42:27;;;;;;;;;;;;;;;;;;2062579;28;20154;-90
2023/03/01 00:43:27;;;;;;;;;;;;;;;;;;2054584;28;19920;-90
2023/03/01 00:44:28;;;;;;;;;;;;;;;;;;2062673;28;20391;-89
2023/03/01 00:45:29;;;;;;;;;;;;;;;;;;2062789;28;19909;-91
2023/03/01 00:46:30;;;;;;;;;;;;;;;;;;2062769;28;19910;-89
2023/03/01 00:47:30;;;;;;;;;;;;;;;;;;2062599;28;20490;-90
2023/03/01 00:48:30;;;;;;;;;;;;;;;;;;2070860;28;19947;-90
2023/03/01 00:49:31;;;;;;;;;;;;;;;;;;2062789;28;19929;-90
2023/03/01 00:50:31;;;;;;;;;;;;;;;;;;2054666;28;19918;-89
2023/03/01 00:51:31;;;;;;;;;;;;;;;;;;2062880;28;19914;-90
2023/03/01 00:52:32;;;;;;;;;;;;;;;;;;2062671;28;20392;-90
2023/03/01 00:53:32;;;;;;;;;;;;;;;;;;2054907;28;20415;-91
2023/03/01 00:54:32;;;;;;;;;;;;;;;;;;1710888;28;10213685;-91
2023/03/01 00:55:33;;;;;;;;;;;;;;;;;;2064386;28;20031;-90
2023/03/01 00:56:33;;;;;;;;;;;;;;;;;;2071113;28;19909;-91
2023/03/01 00:57:33;;;;;;;;;;;;;;;;;;2066296;28;19988;-90
2023/03/01 00:58:34;;;;;;;;;;;;;;;;;;2072954;28;20414;-91
2023/03/01 00:59:34;;;;;;;;;;;;;;;;;;2072288;28;19987;-90
2023/03/01 01:00:35;;;;;;;;;;;;;;;;;;2072129;28;19910;-91
2023/03/01 01:01:35;;;;;;;;;;;;;;;;;;2063934;28;19932;-89
2023/03/01 01:02:35;;;;;;;;;;;;;;;;;;2064109;28;19914;-90
2023/03/01 01:03:35;;;;;;;;;;;;;;;;;;2064022;28;19932;-91
2023/03/01 01:04:36;;;;;;;;;;;;;;;;;;2056189;28;19910;-90
2023/03/01 01:05:36;;;;;;;;;;;;;;;;;;2072047;28;19961;-91
2023/03/01 01:06:46;;;;;;;;;;;;;;;;;;2080609;28;19912;-90
2023/03/01 01:07:47;;;;;;;;;;;;;;;;;;2072087;28;19917;-91
2023/03/01 01:08:48;;;;;;;;;;;;;;;;;;2064289;28;19910;-91
2023/03/01 01:09:48;;;;;;;;;;;;;;;;;;2064487;28;20056;-90
2023/03/01 01:10:48;;;;;;;;;;;;;;;;;;2056208;28;20009;-90
2023/03/01 01:11:50;;;;;;;;;;;;;;;;;;2055913;28;19969;-92
2023/03/01 01:12:50;;;;;;;;;;;;;;;;;;2056151;28;20371;-91
2023/03/01 01:13:51;;;;;;;;;;;;;;;;;;2064334;28;19910;-91
2023/03/01 01:14:51;;;;;;;;;;;;;;;;;;2064717;28;19917;-91
2023/03/01 01:15:51;;;;;;;;;;;;;;;;;;2064019;28;19924;-91
2023/03/01 01:16:52;;;;;;;;;;;;;;;;;;2064171;28;20372;-91
2023/03/01 01:17:52;;;;;;;;;;;;;;;;;;2071981;28;19910;-91
2023/03/01 01:18:53;;;;;;;;;;;;;;;;;;2072473;28;20283;-91
2023/03/01 01:19:53;;;;;;;;;;;;;;;;;;2064254;28;19910;-90
2023/03/01 01:20:53;;;;;;;;;;;;;;;;;;2056027;28;19914;-91
2023/03/01 01:21:54;;;;;;;;;;;;;;;;;;2055918;28;20473;-91
2023/03/01 01:22:54;;;;;;;;;;;;;;;;;;2055868;28;19965;-91
2023/03/01 01:23:55;;;;;;;;;;;;;;;;;;2063919;28;19916;-91
2023/03/01 01:24:55;;;;;;;;;;;;;;;;;;2064124;28;19913;-91
2023/03/01 01:25:56;;;;;;;;;;;;;;;;;;2064719;28;19917;-92
2023/03/01 01:26:56;;;;;;;;;;;;;;;;;;2056730;28;19910;-90
2023/03/01 01:27:57;;;;;;;;;;;;;;;;;;2063980;28;19921;-90
2023/03/01 01:28:58;;;;;;;;;;;;;;;;;;2055753;28;19937;-90
2023/03/01 01:29:58;;;;;;;;;;;;;;;;;;2063953;28;20407;-91
2023/03/01 01:30:58;;;;;;;;;;;;;;;;;;2080414;28;19917;-91
2023/03/01 01:31:59;;;;;;;;;;;;;;;;;;1724762;28;10056867;-92
2023/03/01 01:32:59;;;;;;;;;;;;;;;;;;2056201;28;19946;-91
2023/03/01 01:34:00;;;;;;;;;;;;;;;;;;2064241;28;19913;-91
2023/03/01 01:35:01;;;;;;;;;;;;;;;;;;2064099;28;19917;-91
2023/03/01 01:36:01;;;;;;;;;;;;;;;;;;2063927;28;19953;-92
2023/03/01 01:37:02;;;;;;;;;;;;;;;;;;2056123;28;19925;-92
2023/03/01 01:38:02;;;;;;;;;;;;;;;;;;2056174;28;19925;-92
2023/03/01 01:39:03;;;;;;;;;;;;;;;;;;2064527;28;19960;-92
2023/03/01 01:40:04;;;;;;;;;;;;;;;;;;2072398;28;19919;-92
2023/03/01 01:41:05;;;;;;;;;;;;;;;;;;2064129;28;19956;-92
2023/03/01 01:42:05;;;;;;;;;;;;;;;;;;2064093;28;20002;-91
2023/03/01 01:43:09;;;;;;;;;;;;;;;;;;2064002;28;19910;-91
2023/03/01 01:44:18;;;;;;;;;;;;;;;;;;2063777;28;20048;-90
2023/03/01 01:45:26;;;;;;;;;;;;;;;;;;2056865;28;20570;-88
2023/03/01 01:46:29;;;;;;;;;;;;;;;;;;2056808;28;20365;-91
2023/03/01 01:47:30;;;;;;;;;;;;;;;;;;2056942;28;19910;-91
2023/03/01 01:48:41;;;;;;;;;;;;;;;;;;2062927;28;19914;-91
2023/03/01 01:49:43;;;;;;;;;;;;;;;;;;2061161;28;19918;-92
2023/03/01 01:50:44;;;;;;;;;;;;;;;;;;2055944;28;19916;-89
2023/03/01 01:51:48;;;;;;;;;;;;;;;;;;2063655;28;19961;-92
2023/03/01 01:52:49;;;;;;;;;;;;;;;;;;2056001;28;19952;-89
2023/03/01 01:53:53;;;;;;;;;;;;;;;;;;2064182;28;19910;-89
2023/03/01 01:54:56;;;;;;;;;;;;;;;;;;2064348;28;19909;-91
2023/03/01 01:55:58;;;;;;;;;;;;;;;;;;2064197;28;19917;-91
2023/03/01 01:57:04;;;;;;;;;;;;;;;;;;2064348;28;20052;-91
2023/03/01 01:58:26;;;;;;;;;;;;;;;;;;2075362;28;19909;-95
2023/03/01 01:59:35;;;;;;;;;;;;;;;;;;2077938;28;19918;-95
2023/03/01 02:00:39;;;;;;;;;;;;;;;;;;2069598;28;20008;-96
2023/03/01 02:01:59;;;;;;;;;;;;;;;;;;2071909;28;19971;-95
2023/03/01 02:03:00;;;;;;;;;;;;;;;;;;2070039;28;19910;-96
2023/03/01 02:04:00;;;;;;;;;;;;;;;;;;2070656;28;20428;-96
2023/03/01 02:05:09;;;;;;;;;;;;;;;;;;2072315;28;19933;-96
2023/03/01 02:06:13;;;;;;;;;;;;;;;;;;2069601;28;19914;-96
2023/03/01 02:07:19;;;;;;;;;;;;;;;;;;2069046;28;19916;-96
2023/03/01 02:08:20;;;;;;;;;;;;;;;;;;2070506;28;19921;-96
2023/03/01 02:09:25;;;;;;;;;;;;;;;;;;2075376;28;19906;-95
2023/03/01 02:10:26;;;;;;;;;;;;;;;;;;2075887;28;20005;-96
2023/03/01 02:11:29;;;;;;;;;;;;;;;;;;2075271;28;19905;-96
2023/03/01 02:12:36;;;;;;;;;;;;;;;;;;2075256;28;19955;-95
2023/03/01 02:13:39;;;;;;;;;;;;;;;;;;2074039;28;19929;-96
2023/03/01 02:14:39;;;;;;;;;;;;;;;;;;2065993;28;20257;-90
2023/03/01 02:15:40;;;;;;;;;;;;;;;;;;2071966;28;19909;-91
2023/03/01 02:16:42;;;;;;;;;;;;;;;;;;2071539;28;19909;-90
2023/03/01 02:17:42;;;;;;;;;;;;;;;;;;2063882;28;19914;-91
2023/03/01 02:18:43;;;;;;;;;;;;;;;;;;2063976;28;19916;-91
2023/03/01 02:20:02;;;;;;;;;;;;;;;;;;2072420;28;20336;-90
2023/03/01 02:21:13;;;;;;;;;;;;;;;;;;2072396;28;20354;-90
2023/03/01 02:22:32;;;;;;;;;;;;;;;;;;2063572;28;19960;-89
2023/03/01 02:23:33;;;;;;;;;;;;;;;;;;2066420;28;20257;-89
2023/03/01 02:24:40;;;;;;;;;;;;;;;;;;2071555;28;19909;-91
2023/03/01 02:25:43;;;;;;;;;;;;;;;;;;2063414;28;19944;-89
2023/03/01 02:26:50;;;;;;;;;;;;;;;;;;2055410;28;19980;-90
2023/03/01 02:27:50;;;;;;;;;;;;;;;;;;2055923;28;19917;-89
2023/03/01 02:28:50;;;;;;;;;;;;;;;;;;2057283;28;19934;-90
2023/03/01 02:29:50;;;;;;;;;;;;;;;;;;2063163;28;19965;-90
2023/03/01 02:32:11;;;;;;;;;;;;;;;;;;2080254;28;19913;-90
2023/03/01 02:33:11;;;;;;;;;;;;;;;;;;2068079;28;20004;-90
2023/03/01 02:34:16;;;;;;;;;;;;;;;;;;2067413;28;19913;-89
2023/03/01 02:35:17;;;;;;;;;;;;;;;;;;2067694;28;20299;-90
2023/03/01 02:36:22;;;;;;;;;;;;;;;;;;2058742;28;19949;-90
2023/03/01 02:37:24;;;;;;;;;;;;;;;;;;2063631;28;20020;-90
2023/03/01 02:38:25;;;;;;;;;;;;;;;;;;2055576;28;19917;-90
2023/03/01 02:39:26;;;;;;;;;;;;;;;;;;2064279;28;19913;-90
2023/03/01 02:40:28;;;;;;;;;;;;;;;;;;2077588;28;20016;-89
2023/03/01 02:41:30;;;;;;;;;;;;;;;;;;2079589;28;19913;-90
2023/03/01 02:42:33;;;;;;;;;;;;;;;;;;2071678;28;20441;-90
2023/03/01 02:43:34;;;;;;;;;;;;;;;;;;1726068;28;10001522;-90
2023/03/01 02:44:34;;;;;;;;;;;;;;;;;;2063247;28;20365;-90
2023/03/01 02:45:35;;;;;;;;;;;;;;;;;;2063313;28;19917;-90
2023/03/01 02:46:41;;;;;;;;;;;;;;;;;;2055155;28;19953;-91
2023/03/01 02:47:42;;;;;;;;;;;;;;;;;;2055971;28;19914;-90
2023/03/01 02:48:47;;;;;;;;;;;;;;;;;;2055332;28;19914;-90
2023/03/01 02:49:47;;;;;;;;;;;;;;;;;;2063455;28;19979;-90
2023/03/01 02:51:06;;;;;;;;;;;;;;;;;;2055295;28;19974;-90
2023/03/01 02:52:12;;;;;;;;;;;;;;;;;;2063273;28;19961;-90
2023/03/01 02:53:35;;;;;;;;;;;;;;;;;;2063282;28;20012;-91
2023/03/01 02:55:14;;;;;;;;;;;;;;;;;;2057522;28;19924;-90
2023/03/01 02:56:14;;;;;;;;;;;;;;;;;;2043703;29;19910;-91
2023/03/01 02:57:15;;;;;;;;;;;;;;;;;;2039007;29;19958;-91
2023/03/01 02:58:15;;;;;;;;;;;;;;;;;;2046838;29;19910;-91
2023/03/01 02:59:24;;;;;;;;;;;;;;;;;;2054688;28;19914;-90
2023/03/01 03:00:28;;;;;;;;;;;;;;;;;;2046628;29;19910;-91
2023/03/01 03:01:37;;;;;;;;;;;;;;;;;;2048415;28;19911;-91
2023/03/01 03:02:57;;;;;;;;;;;;;;;;;;2071997;28;20025;-91
2023/03/01 03:03:59;;;;;;;;;;;;;;;;;;2062998;28;20468;-91
2023/03/01 03:05:00;;;;;;;;;;;;;;;;;;2063814;28;19988;-92
2023/03/01 03:06:00;;;;;;;;;;;;;;;;;;2072081;28;19913;-90
2023/03/01 03:07:00;;;;;;;;;;;;;;;;;;2071322;28;20074;-90
2023/03/01 03:08:02;;;;;;;;;;;;;;;;;;2063555;28;20320;-90
2023/03/01 03:09:03;;;;;;;;;;;;;;;;;;2065563;28;19922;-90
2023/03/01 03:10:04;;;;;;;;;;;;;;;;;;2065197;28;19987;-89
2023/03/01 03:11:05;;;;;;;;;;;;;;;;;;2062968;28;19986;-91
2023/03/01 03:12:05;;;;;;;;;;;;;;;;;;2063347;28;19910;-90
2023/03/01 03:13:09;;;;;;;;;;;;;;;;;;2062877;28;19910;-91
2023/03/01 03:14:12;;;;;;;;;;;;;;;;;;2062944;28;19910;-91
2023/03/01 03:15:12;;;;;;;;;;;;;;;;;;2062777;28;19964;-91
2023/03/01 03:16:12;;;;;;;;;;;;;;;;;;2062850;28;19910;-91
2023/03/01 03:17:13;;;;;;;;;;;;;;;;;;2062869;28;19909;-91
2023/03/01 03:18:15;;;;;;;;;;;;;;;;;;2055008;28;19969;-90
2023/03/01 03:19:16;;;;;;;;;;;;;;;;;;2055147;28;19910;-91
2023/03/01 03:20:21;;;;;;;;;;;;;;;;;;2062913;28;19909;-89
2023/03/01 03:21:21;;;;;;;;;;;;;;;;;;2070860;28;19999;-93
2023/03/01 03:22:21;;;;;;;;;;;;;;;;;;2079672;28;19979;-92
2023/03/01 03:23:21;;;;;;;;;;;;;;;;;;2071062;28;19917;-90
2023/03/01 03:24:22;;;;;;;;;;;;;;;;;;2063496;28;19921;-91
2023/03/01 03:25:22;;;;;;;;;;;;;;;;;;2063248;28;20000;-91
2023/03/01 03:26:22;;;;;;;;;;;;;;;;;;2063029;28;20424;-92
2023/03/01 03:27:23;;;;;;;;;;;;;;;;;;2063173;28;19910;-92
2023/03/01 03:28:23;;;;;;;;;;;;;;;;;;2062840;28;20315;-91
2023/03/01 03:29:23;;;;;;;;;;;;;;;;;;1709091;28;10277929;-89
2023/03/01 03:30:28;;;;;;;;;;;;;;;;;;2063081;28;19917;-91
2023/03/01 03:31:30;;;;;;;;;;;;;;;;;;2063677;28;19909;-92
2023/03/01 03:32:30;;;;;;;;;;;;;;;;;;2068256;28;19914;-88
2023/03/01 03:33:31;;;;;;;;;;;;;;;;;;2065168;28;19921;-91
2023/03/01 03:34:31;;;;;;;;;;;;;;;;;;2063506;28;20008;-91
2023/03/01 03:35:33;;;;;;;;;;;;;;;;;;2055557;28;19992;-91
2023/03/01 03:36:33;;;;;;;;;;;;;;;;;;2055399;28;19914;-91
2023/03/01 03:38:52;;;;;;;;;;;;;;;;;;2065819;28;19913;-89
2023/03/01 03:39:57;;;;;;;;;;;;;;;;;;2071918;28;19913;-91
2023/03/01 03:41:04;;;;;;;;;;;;;;;;;;2073873;28;19909;-95
2023/03/01 03:42:09;;;;;;;;;;;;;;;;;;2066086;28;20454;-95
2023/03/01 03:43:11;;;;;;;;;;;;;;;;;;2065572;28;19909;-93
2023/03/01 03:44:12;;;;;;;;;;;;;;;;;;2057991;28;19910;-96
2023/03/01 03:45:12;;;;;;;;;;;;;;;;;;2073790;28;19953;-96
2023/03/01 03:46:12;;;;;;;;;;;;;;;;;;2073891;28;19916;-95
2023/03/01 03:47:13;;;;;;;;;;;;;;;;;;2057474;28;20001;-96
2023/03/01 03:48:15;;;;;;;;;;;;;;;;;;2074300;28;19940;-96
2023/03/01 03:49:15;;;;;;;;;;;;;;;;;;2075046;28;20071;-95
2023/03/01 03:50:19;;;;;;;;;;;;;;;;;;1723457;28;10157905;-96
2023/03/01 03:51:22;;;;;;;;;;;;;;;;;;2080835;28;19910;-94
2023/03/01 03:52:23;;;;;;;;;;;;;;;;;;2058151;28;19923;-93
2023/03/01 03:53:26;;;;;;;;;;;;;;;;;;2064091;28;19931;-91
2023/03/01 03:54:26;;;;;;;;;;;;;;;;;;2079901;28;20000;-92
2023/03/01 03:55:30;;;;;;;;;;;;;;;;;;2079442;28;20311;-90
2023/03/01 03:56:30;;;;;;;;;;;;;;;;;;2070958;28;19909;-91
2023/03/01 03:57:30;;;;;;;;;;;;;;;;;;2063585;28;20004;-92
2023/03/01 03:58:31;;;;;;;;;;;;;;;;;;2071865;28;20042;-91
2023/03/01 03:59:32;;;;;;;;;;;;;;;;;;2071184;28;19909;-90
2023/03/01 04:01:56;;;;;;;;;;;;;;;;;;2066802;28;19909;-91
2023/03/01 04:02:56;;;;;;;;;;;;;;;;;;2071306;28;19917;-92
2023/03/01 04:04:03;;;;;;;;;;;;;;;;;;2063415;28;20345;-92
2023/03/01 04:05:04;;;;;;;;;;;;;;;;;;2056149;28;19997;-90
2023/03/01 04:06:05;;;;;;;;;;;;;;;;;;2062704;28;19928;-89
2023/03/01 04:07:05;;;;;;;;;;;;;;;;;;2062908;28;19916;-91
2023/03/01 04:08:08;;;;;;;;;;;;;;;;;;2063081;28;19964;-91
2023/03/01 04:09:09;;;;;;;;;;;;;;;;;;1711144;28;10219631;-90
2023/03/01 04:10:10;;;;;;;;;;;;;;;;;;2055019;28;19974;-91
2023/03/01 04:11:26;;;;;;;;;;;;;;;;;;2054889;28;19916;-91
2023/03/01 04:12:26;;;;;;;;;;;;;;;;;;2065254;28;19913;-91
2023/03/01 04:13:27;;;;;;;;;;;;;;;;;;2071612;28;20190;-91
2023/03/01 04:14:27;;;;;;;;;;;;;;;;;;2071258;28;19909;-91
2023/03/01 04:15:27;;;;;;;;;;;;;;;;;;2063525;28;19956;-93
2023/03/01 04:16:28;;;;;;;;;;;;;;;;;;2055358;28;20360;-92
2023/03/01 04:17:28;;;;;;;;;;;;;;;;;;2055414;28;19981;-91
2023/03/01 04:18:28;;;;;;;;;;;;;;;;;;2055188;28;20206;-91
2023/03/01 04:19:29;;;;;;;;;;;;;;;;;;2063093;28;19983;-91
2023/03/01 04:20:31;;;;;;;;;;;;;;;;;;2062852;28;19910;-89
2023/03/01 04:21:31;;;;;;;;;;;;;;;;;;2063233;28;19910;-92
2023/03/01 04:22:33;;;;;;;;;;;;;;;;;;2079304;28;20011;-91
2023/03/01 04:23:36;;;;;;;;;;;;;;;;;;2079097;28;19913;-90
2023/03/01 04:24:36;;;;;;;;;;;;;;;;;;2077422;28;19909;-90
2023/03/01 04:25:38;;;;;;;;;;;;;;;;;;2081351;28;19914;-89
2023/03/01 04:26:38;;;;;;;;;;;;;;;;;;2073787;28;19929;-90
2023/03/01 04:27:38;;;;;;;;;;;;;;;;;;2071219;28;20364;-91
2023/03/01 04:28:40;;;;;;;;;;;;;;;;;;2063288;28;20453;-91
2023/03/01 04:29:40;;;;;;;;;;;;;;;;;;2062954;28;19929;-89
2023/03/01 04:30:41;;;;;;;;;;;;;;;;;;2071069;28;19920;-89
2023/03/01 04:31:41;;;;;;;;;;;;;;;;;;2063071;28;20335;-88
2023/03/01 04:32:42;;;;;;;;;;;;;;;;;;2055565;28;20008;-91
2023/03/01 04:33:43;;;;;;;;;;;;;;;;;;1713908;28;10173830;-89
2023/03/01 04:34:43;;;;;;;;;;;;;;;;;;2056349;28;19996;-89
2023/03/01 04:35:44;;;;;;;;;;;;;;;;;;2064557;28;20466;-89
2023/03/01 04:36:47;;;;;;;;;;;;;;;;;;2065020;28;20389;-91
2023/03/01 04:37:47;;;;;;;;;;;;;;;;;;2065545;28;19917;-90
2023/03/01 04:38:48;;;;;;;;;;;;;;;;;;2073172;28;19940;-90
2023/03/01 04:39:48;;;;;;;;;;;;;;;;;;2073493;28;19924;-91
2023/03/01 04:40:48;;;;;;;;;;;;;;;;;;2072405;28;19910;-88
2023/03/01 04:41:49;;;;;;;;;;;;;;;;;;2064560;28;20335;-89
2023/03/01 04:42:49;;;;;;;;;;;;;;;;;;2056338;28;20083;-89
2023/03/01 04:43:50;;;;;;;;;;;;;;;;;;2064206;28;19988;-88
2023/03/01 04:44:51;;;;;;;;;;;;;;;;;;2064469;28;19917;-89
2023/03/01 04:45:51;;;;;;;;;;;;;;;;;;2064216;28;19910;-89
2023/03/01 04:46:51;;;;;;;;;;;;;;;;;;2064484;28;20143;-89
2023/03/01 04:47:54;;;;;;;;;;;;;;;;;;2064068;28;20083;-89
2023/03/01 04:48:55;;;;;;;;;;;;;;;;;;2064516;28;19913;-89
2023/03/01 04:49:55;;;;;;;;;;;;;;;;;;2071834;28;19960;-89
2023/03/01 04:50:55;;;;;;;;;;;;;;;;;;2064029;28;19909;-89
2023/03/01 04:51:58;;;;;;;;;;;;;;;;;;2055834;28;20381;-89
2023/03/01 04:53:03;;;;;;;;;;;;;;;;;;1878027;28;10001194;-88
2023/03/01 04:54:05;;;;;;;;;;;;;;;;;;2072102;28;19980;-89
2023/03/01 04:55:05;;;;;;;;;;;;;;;;;;2070791;28;19918;-89
2023/03/01 04:56:06;;;;;;;;;;;;;;;;;;2065746;28;19910;-90
2023/03/01 04:57:12;;;;;;;;;;;;;;;;;;1906777;28;10149452;-90
2023/03/01 04:58:12;;;;;;;;;;;;;;;;;;2056871;28;20440;-89
2023/03/01 04:59:13;;;;;;;;;;;;;;;;;;2063893;28;20482;-89
2023/03/01 05:00:22;;;;;;;;;;;;;;;;;;2063975;28;19916;-90
2023/03/01 05:01:22;;;;;;;;;;;;;;;;;;2065074;28;19932;-90
2023/03/01 05:02:23;;;;;;;;;;;;;;;;;;2071924;28;19945;-89
2023/03/01 05:03:24;;;;;;;;;;;;;;;;;;2063686;28;20325;-90
2023/03/01 05:04:25;;;;;;;;;;;;;;;;;;2063830;28;20025;-90
2023/03/01 05:05:26;;;;;;;;;;;;;;;;;;2072390;28;20161;-90
2023/03/01 05:06:27;;;;;;;;;;;;;;;;;;2063797;28;20328;-90
2023/03/01 05:07:27;;;;;;;;;;;;;;;;;;2063858;28;19909;-89
2023/03/01 05:08:28;;;;;;;;;;;;;;;;;;2072629;28;19952;-89
2023/03/01 05:09:29;;;;;;;;;;;;;;;;;;2080241;28;20007;-89
2023/03/01 05:10:30;;;;;;;;;;;;;;;;;;2072404;28;19969;-89
2023/03/01 05:11:35;;;;;;;;;;;;;;;;;;2056193;28;19922;-88
2023/03/01 05:12:37;;;;;;;;;;;;;;;;;;2070396;28;19898;-89
2023/03/01 05:13:38;;;;;;;;;;;;;;;;;;2083123;28;19989;-90
2023/03/01 05:14:38;;;;;;;;;;;;;;;;;;2074848;28;19914;-88
2023/03/01 05:15:39;;;;;;;;;;;;;;;;;;2073037;28;19919;-89
2023/03/01 05:16:39;;;;;;;;;;;;;;;;;;2071499;28;20230;-89
2023/03/01 05:17:40;;;;;;;;;;;;;;;;;;2074799;28;19920;-90
2023/03/01 05:18:40;;;;;;;;;;;;;;;;;;2068611;28;20009;-91
2023/03/01 05:19:42;;;;;;;;;;;;;;;;;;2064200;28;19909;-90
2023/03/01 05:20:43;;;;;;;;;;;;;;;;;;2064117;28;19925;-90
2023/03/01 05:22:01;;;;;;;;;;;;;;;;;;2072271;28;20383;-90
2023/03/01 05:23:04;;;;;;;;;;;;;;;;;;2064083;28;19910;-90
2023/03/01 05:24:10;;;;;;;;;;;;;;;;;;2063673;28;20419;-90
2023/03/01 05:25:10;;;;;;;;;;;;;;;;;;2064349;28;20432;-89
2023/03/01 05:26:12;;;;;;;;;;;;;;;;;;2063517;28;19913;-89
2023/03/01 05:27:13;;;;;;;;;;;;;;;;;;1751619;28;10267304;-90
2023/03/01 05:28:14;;;;;;;;;;;;;;;;;;2063420;28;19997;-89
2023/03/01 05:29:14;;;;;;;;;;;;;;;;;;2055569;28;19914;-89
2023/03/01 05:30:15;;;;;;;;;;;;;;;;;;2063341;28;19917;-90
2023/03/01 05:31:15;;;;;;;;;;;;;;;;;;2063417;28;19909;-90
2023/03/01 05:32:16;;;;;;;;;;;;;;;;;;2063442;28;20056;-90
2023/03/01 05:33:16;;;;;;;;;;;;;;;;;;2063688;28;20040;-90
2023/03/01 05:34:16;;;;;;;;;;;;;;;;;;2071677;28;19909;-90
2023/03/01 05:35:17;;;;;;;;;;;;;;;;;;1714532;28;10136215;-90
2023/03/01 05:36:18;;;;;;;;;;;;;;;;;;2055383;28;19945;-92
2023/03/01 05:37:19;;;;;;;;;;;;;;;;;;2063993;28;19910;-91
2023/03/01 05:38:20;;;;;;;;;;;;;;;;;;2072391;28;19910;-89
2023/03/01 05:39:22;;;;;;;;;;;;;;;;;;2072207;28;20374;-89
2023/03/01 05:40:23;;;;;;;;;;;;;;;;;;2072259;28;19913;-90
2023/03/01 05:41:24;;;;;;;;;;;;;;;;;;2055381;28;19964;-90
2023/03/01 05:42:24;;;;;;;;;;;;;;;;;;2055773;28;19938;-90
2023/03/01 05:43:25;;;;;;;;;;;;;;;;;;2073054;28;19909;-89
2023/03/01 05:44:26;;;;;;;;;;;;;;;;;;2071816;28;19921;-89
2023/03/01 05:45:27;;;;;;;;;;;;;;;;;;2064555;28;19914;-91
2023/03/01 05:46:29;;;;;;;;;;;;;;;;;;2064327;28;19921;-90
2023/03/01 05:47:31;;;;;;;;;;;;;;;;;;2072704;28;19906;-91
2023/03/01 05:48:31;;;;;;;;;;;;;;;;;;2072698;28;19920;-91
2023/03/01 05:49:32;;;;;;;;;;;;;;;;;;2072020;28;19917;-91
2023/03/01 05:50:33;;;;;;;;;;;;;;;;;;2064105;28;19918;-92
2023/03/01 05:51:34;;;;;;;;;;;;;;;;;;2055991;28;19986;-91
2023/03/01 05:52:35;;;;;;;;;;;;;;;;;;2064548;28;19922;-91
2023/03/01 05:53:35;;;;;;;;;;;;;;;;;;2063784;28;19910;-91
2023/03/01 05:56:05;;;;;;;;;;;;;;;;;;2063490;28;19914;-90
2023/03/01 05:58:04;;;;;;;;;;;;;;;;;;2072196;28;19932;-89
2023/03/01 05:59:28;;;;;;;;;;;;;;;;;;2063503;28;19946;-91
2023/03/01 06:00:51;;;;;;;;;;;;;;;;;;2062709;28;20392;-88
2023/03/01 06:01:52;;;;;;;;;;;;;;;;;;2058392;28;19964;-89
2023/03/01 06:02:53;;;;;;;;;;;;;;;;;;2065017;28;19921;-90
2023/03/01 06:03:53;;;;;;;;;;;;;;;;;;2079807;28;19913;-88
2023/03/01 06:04:53;;;;;;;;;;;;;;;;;;2079492;28;20370;-90
2023/03/01 06:05:57;;;;;;;;;;;;;;;;;;2072032;28;20006;-89
2023/03/01 06:06:57;;;;;;;;;;;;;;;;;;2062875;28;19917;-89
2023/03/01 06:07:59;;;;;;;;;;;;;;;;;;2062940;28;19999;-89
2023/03/01 06:08:59;;;;;;;;;;;;;;;;;;2063878;28;19941;-88
2023/03/01 06:09:59;;;;;;;;;;;;;;;;;;2069838;28;19937;-87
2023/03/01 06:11:00;;;;;;;;;;;;;;;;;;2065059;28;20028;-89
2023/03/01 06:12:00;;;;;;;;;;;;;;;;;;2062958;28;20316;-88
2023/03/01 06:13:00;;;;;;;;;;;;;;;;;;2055160;28;20001;-87
2023/03/01 06:14:00;;;;;;;;;;;;;;;;;;2063017;28;20392;-88
2023/03/01 06:15:01;;;;;;;;;;;;;;;;;;2071668;28;20284;-89
2023/03/01 06:16:04;;;;;;;;;;;;;;;;;;2071912;28;20362;-88
2023/03/01 06:17:04;;;;;;;;;;;;;;;;;;2071991;28;20407;-88
2023/03/01 06:18:04;;;;;;;;;;;;;;;;;;2071290;28;19909;-88
2023/03/01 06:19:05;;;;;;;;;;;;;;;;;;2071303;28;19909;-89
2023/03/01 06:20:06;;;;;;;;;;;;;;;;;;2072136;28;19920;-89
2023/03/01 06:21:07;;;;;;;;;;;;;;;;;;2071708;28;19909;-90
2023/03/01 06:22:08;;;;;;;;;;;;;;;;;;2072148;28;19914;-90
2023/03/01 06:23:17;;;;;;;;;;;;;;;;;;2071855;28;19939;-90
2023/03/01 06:24:17;;;;;;;;;;;;;;;;;;2070829;28;19932;-90
2023/03/01 06:25:31;;;;;;;;;;;;;;;;;;2062826;28;20004;-90
2023/03/01 06:26:31;;;;;;;;;;;;;;;;;;2062902;28;19909;-90
2023/03/01 06:27:31;;;;;;;;;;;;;;;;;;2062988;28;19909;-90
2023/03/01 06:28:31;;;;;;;;;;;;;;;;;;2063022;28;19917;-90
2023/03/01 06:29:35;;;;;;;;;;;;;;;;;;2063501;28;20008;-89
2023/03/01 06:30:35;;;;;;;;;;;;;;;;;;2072802;28;20308;-90
2023/03/01 06:31:35;;;;;;;;;;;;;;;;;;2072910;28;19943;-90
2023/03/01 06:32:36;;;;;;;;;;;;;;;;;;2072986;28;19910;-90
2023/03/01 06:33:37;;;;;;;;;;;;;;;;;;2063533;28;20242;-89
2023/03/01 06:34:37;;;;;;;;;;;;;;;;;;2063421;28;19945;-89
2023/03/01 06:35:37;;;;;;;;;;;;;;;;;;2071879;28;19917;-89
2023/03/01 06:36:38;;;;;;;;;;;;;;;;;;2079455;28;20359;-90
2023/03/01 06:37:39;;;;;;;;;;;;;;;;;;2071332;28;20554;-89
2023/03/01 06:38:40;;;;;;;;;;;;;;;;;;2063395;28;19913;-88
2023/03/01 06:39:40;;;;;;;;;;;;;;;;;;2055268;28;19921;-89
2023/03/01 06:40:41;;;;;;;;;;;;;;;;;;2055114;28;19910;-91
2023/03/01 06:41:41;;;;;;;;;;;;;;;;;;2071340;28;19909;-89
2023/03/01 06:42:43;;;;;;;;;;;;;;;;;;2071186;28;20061;-89
2023/03/01 06:43:43;;;;;;;;;;;;;;;;;;2071380;28;19920;-92
2023/03/01 06:44:43;;;;;;;;;;;;;;;;;;2071463;28;19919;-89
2023/03/01 06:45:45;;;;;;;;;;;;;;;;;;2055649;28;20462;-91
2023/03/01 06:46:45;;;;;;;;;;;;;;;;;;2055555;28;19921;-90
2023/03/01 06:47:46;;;;;;;;;;;;;;;;;;2063195;28;20399;-91
2023/03/01 06:48:46;;;;;;;;;;;;;;;;;;2063607;28;20069;-91
2023/03/01 06:49:47;;;;;;;;;;;;;;;;;;2063390;28;19954;-93
2023/03/01 06:50:47;;;;;;;;;;;;;;;;;;2071360;28;19910;-91
2023/03/01 06:51:47;;;;;;;;;;;;;;;;;;2063436;28;20379;-90
2023/03/01 06:52:48;;;;;;;;;;;;;;;;;;2055339;28;20033;-91
2023/03/01 06:53:48;;;;;;;;;;;;;;;;;;1703556;28;10254994;-89
2023/03/01 06:54:48;;;;;;;;;;;;;;;;;;2055122;28;20684;-91
2023/03/01 06:55:53;;;;;;;;;;;;;;;;;;2063147;28;19910;-92
2023/03/01 06:56:53;;;;;;;;;;;;;;;;;;2063659;28;19958;-93
2023/03/01 06:57:58;;;;;;;;;;;;;;;;;;2063614;28;19916;-90
2023/03/01 06:58:58;;;;;;;;;;;;;;;;;;2072020;28;19964;-91
2023/03/01 06:59:58;;;;;;;;;;;;;;;;;;2071446;28;20242;-91
2023/03/01 07:00:58;;;;;;;;;;;;;;;;;;2065333;28;19965;-89
2023/03/01 07:01:59;;;;;;;;;;;;;;;;;;2063021;28;19910;-91
2023/03/01 07:03:01;;;;;;;;;;;;;;;;;;2060651;28;20012;-93
2023/03/01 07:04:01;;;;;;;;;;;;;;;;;;2055647;28;19910;-88
2023/03/01 07:05:02;;;;;;;;;;;;;;;;;;2063452;28;19945;-90
2023/03/01 07:06:02;;;;;;;;;;;;;;;;;;2080039;28;20359;-92
2023/03/01 07:07:03;;;;;;;;;;;;;;;;;;2080095;28;19912;-92
2023/03/01 07:08:03;;;;;;;;;;;;;;;;;;2064113;28;19917;-92
2023/03/01 07:09:03;;;;;;;;;;;;;;;;;;2063668;28;19913;-91